Time;durP1;ratioP1;P1;durP2;ratioP2;P2;SDS_P1;SDS_P2;PMS_P1;PMS_P2;Temp;Humidity;BMP_temperature;BMP_pressure;BME280_temperature;BME280_humidity;BME280_pressure;Samples;Min_cycle;Max_cycle;Signal;HPM_P1;HPM_P2
2020/12/15 00:01:58;;;;;;;1.00;1.00;;;1.30;99.90;;;;;;5109579;28;20191;-68
2020/12/15 00:04:26;;;;;;;0.55;0.55;;;1.30;99.90;;;;;;5109698;28;20158;-68
2020/12/15 00:06:52;;;;;;;0.30;0.30;;;1.30;99.90;;;;;;5109631;28;20190;-68
2020/12/15 00:09:20;;;;;;;0.30;0.30;;;1.30;99.90;;;;;;5109516;28;20160;-68
2020/12/15 00:11:45;;;;;;;0.10;0.10;;;1.30;99.90;;;;;;5109426;28;20187;-68
2020/12/15 00:14:11;;;;;;;0.55;0.55;;;1.30;99.90;;;;;;5109308;28;20155;-69
2020/12/15 00:16:37;;;;;;;0.75;0.50;;;1.40;99.90;;;;;;5108127;28;20174;-68
2020/12/15 00:19:03;;;;;;;0.68;0.68;;;1.40;99.90;;;;;;5109386;28;20155;-68
2020/12/15 00:21:29;;;;;;;1.88;1.77;;;1.40;99.90;;;;;;5092221;28;20222;-68
2020/12/15 00:23:56;;;;;;;0.68;0.68;;;1.40;99.90;;;;;;5089201;28;20167;-67
2020/12/15 00:26:26;;;;;;;0.10;0.10;;;1.40;99.90;;;;;;5087804;28;20208;-67
2020/12/15 00:28:54;;;;;;;0.50;0.50;;;1.40;99.90;;;;;;5087924;28;20171;-68
2020/12/15 00:31:20;;;;;;;1.10;1.10;;;1.40;99.90;;;;;;5088963;28;20210;-68
2020/12/15 00:33:46;;;;;;;0.82;0.82;;;1.40;99.90;;;;;;5089099;28;20184;-67
2020/12/15 00:36:19;;;;;;;0.50;0.50;;;1.40;99.90;;;;;;5089016;28;20160;-68
2020/12/15 00:38:45;;;;;;;0.30;0.30;;;1.30;99.90;;;;;;5087711;28;20176;-68
2020/12/15 00:41:11;;;;;;;0.73;0.68;;;1.40;99.90;;;;;;5087473;28;20306;-68
2020/12/15 00:43:37;;;;;;;0.55;0.55;;;1.40;99.90;;;;;;5088948;28;20171;-68
2020/12/15 00:46:03;;;;;;;0.52;0.52;;;1.30;99.90;;;;;;5088943;28;20172;-68
2020/12/15 00:48:29;;;;;;;0.50;0.50;;;1.40;99.90;;;;;;5109045;28;20167;-68
2020/12/15 00:50:54;;;;;;;0.88;0.85;;;1.30;99.90;;;;;;5112002;28;20195;-68
2020/12/15 00:53:20;;;;;;;1.90;1.80;;;1.30;99.90;;;;;;5113137;28;20219;-69
2020/12/15 00:55:46;;;;;;;1.05;1.05;;;1.20;99.90;;;;;;5113042;28;20215;-67
2020/12/15 00:58:12;;;;;;;1.20;1.10;;;1.30;99.90;;;;;;5111594;28;20192;-69
2020/12/15 01:00:38;;;;;;;0.43;0.43;;;1.30;99.90;;;;;;5111685;28;20171;-69
2020/12/15 01:03:04;;;;;;;0.38;0.38;;;1.30;99.90;;;;;;5111538;28;20207;-68
2020/12/15 01:05:30;;;;;;;0.30;0.30;;;1.40;99.90;;;;;;5112917;28;20159;-68
2020/12/15 01:07:56;;;;;;;0.10;0.10;;;1.40;99.90;;;;;;5112858;28;20216;-69
2020/12/15 01:10:22;;;;;;;0.73;0.73;;;1.40;99.90;;;;;;5112696;28;20250;-68
2020/12/15 01:12:48;;;;;;;2.22;2.03;;;1.40;99.90;;;;;;5112729;28;20202;-68
2020/12/15 01:15:14;;;;;;;0.40;0.40;;;1.40;99.90;;;;;;5112489;28;20152;-66
2020/12/15 01:17:40;;;;;;;0.65;0.65;;;1.40;99.90;;;;;;5112660;28;20165;-67
2020/12/15 01:20:06;;;;;;;0.38;0.38;;;1.40;99.90;;;;;;5107047;28;20184;-67
2020/12/15 01:22:32;;;;;;;1.13;1.02;;;1.30;99.90;;;;;;5092197;28;20191;-68
2020/12/15 01:24:58;;;;;;;1.05;1.00;;;1.30;99.90;;;;;;5090814;28;20176;-67
2020/12/15 01:27:24;;;;;;;0.25;0.25;;;1.40;99.90;;;;;;5092150;28;20166;-68
2020/12/15 01:29:50;;;;;;;0.30;0.30;;;1.30;99.90;;;;;;5092057;28;20192;-68
2020/12/15 01:32:15;;;;;;;0.52;0.52;;;1.30;99.90;;;;;;5091955;28;20195;-69
2020/12/15 01:34:41;;;;;;;3.92;0.85;;;1.30;99.90;;;;;;5090753;28;20168;-68
2020/12/15 01:37:07;;;;;;;0.55;0.55;;;1.30;99.90;;;;;;5090712;28;20616;-68
2020/12/15 01:39:33;;;;;;;0.52;0.52;;;1.30;99.90;;;;;;5091936;28;20187;-69
2020/12/15 01:41:59;;;;;;;0.10;0.10;;;1.30;99.90;;;;;;5091595;28;20227;-68
2020/12/15 01:44:25;;;;;;;0.80;0.80;;;1.30;99.90;;;;;;5091929;28;20160;-68
2020/12/15 01:46:51;;;;;;;0.45;0.45;;;1.30;99.90;;;;;;5099627;28;20163;-68
2020/12/15 01:49:20;;;;;;;0.38;0.38;;;1.30;99.90;;;;;;5111976;28;20160;-68
2020/12/15 01:51:46;;;;;;;2.13;2.03;;;1.30;99.90;;;;;;5111853;28;20188;-67
2020/12/15 01:54:12;;;;;;;0.65;0.65;;;1.30;99.90;;;;;;5111937;28;20152;-67
2020/12/15 01:56:38;;;;;;;0.55;0.55;;;1.30;99.90;;;;;;5111932;28;20147;-67
2020/12/15 01:59:05;;;;;;;0.30;0.30;;;1.30;99.90;;;;;;5110502;28;20193;-68
2020/12/15 02:01:43;;;;;;;0.25;0.25;;;1.30;99.90;;;;;;5110443;28;20210;-68
2020/12/15 02:04:10;;;;;;;0.20;0.20;;;1.40;99.90;;;;;;5110331;28;20167;-69
2020/12/15 02:06:36;;;;;;;1.17;1.08;;;1.30;99.90;;;;;;5111605;28;20162;-69
2020/12/15 02:09:04;;;;;;;0.10;0.10;;;1.40;99.90;;;;;;5111664;28;20163;-68
2020/12/15 02:11:31;;;;;;;0.20;0.20;;;1.40;99.90;;;;;;5111626;28;20195;-68
2020/12/15 02:13:57;;;;;;;2.08;1.98;;;1.40;99.90;;;;;;5111619;28;20765;-68
2020/12/15 02:16:23;;;;;;;1.90;1.80;;;1.40;99.90;;;;;;5111502;28;20209;-68
2020/12/15 02:18:49;;;;;;;0.28;0.28;;;1.50;99.90;;;;;;5111420;28;20156;-68
2020/12/15 02:21:15;;;;;;;0.40;0.40;;;1.40;99.90;;;;;;5096081;28;20231;-68
2020/12/15 02:23:41;;;;;;;0.65;0.65;;;1.40;99.90;;;;;;5088238;28;20206;-68
2020/12/15 02:26:08;;;;;;;3.50;1.77;;;1.40;99.90;;;;;;5090936;28;20191;-68
2020/12/15 02:28:35;;;;;;;0.30;0.30;;;1.40;99.90;;;;;;5089734;28;20255;-68
2020/12/15 02:31:01;;;;;;;0.57;0.57;;;1.40;99.90;;;;;;5089434;28;20209;-68
2020/12/15 02:33:27;;;;;;;0.32;0.32;;;1.50;99.90;;;;;;5090836;28;20178;-68
2020/12/15 02:35:53;;;;;;;1.27;1.27;;;1.40;99.90;;;;;;5090367;28;20152;-67
2020/12/15 02:38:19;;;;;;;0.50;0.50;;;1.40;99.90;;;;;;5100221;28;20214;-67
2020/12/15 02:40:46;;;;;;;0.20;0.20;;;1.40;99.90;;;;;;5102919;28;20223;-68
2020/12/15 02:43:11;;;;;;;0.47;0.47;;;1.50;99.90;;;;;;5089705;28;20192;-68
2020/12/15 02:45:38;;;;;;;0.20;0.20;;;1.50;99.90;;;;;;5102866;28;20231;-67
2020/12/15 02:48:04;;;;;;;0.20;0.20;;;1.50;99.90;;;;;;5110739;28;20163;-67
2020/12/15 02:50:29;;;;;;;0.50;0.50;;;1.40;99.90;;;;;;5109412;28;20191;-68
2020/12/15 02:52:55;;;;;;;1.38;0.85;;;1.50;99.90;;;;;;5108045;28;20190;-68
2020/12/15 02:55:22;;;;;;;0.10;0.10;;;1.50;99.90;;;;;;5089074;28;20178;-66
2020/12/15 02:57:50;;;;;;;0.22;0.22;;;1.40;99.90;;;;;;5089042;28;20164;-68
2020/12/15 03:00:18;;;;;;;0.85;0.85;;;1.40;99.90;;;;;;5090263;28;20195;-68
2020/12/15 03:02:46;;;;;;;0.55;0.55;;;1.40;99.90;;;;;;5090215;28;20200;-68
2020/12/15 03:05:12;;;;;;;0.35;0.35;;;1.30;99.90;;;;;;5088794;28;20164;-66
2020/12/15 03:07:42;;;;;;;0.20;0.20;;;1.20;99.90;;;;;;5090254;28;20692;-68
2020/12/15 03:10:10;;;;;;;0.20;0.20;;;1.10;99.90;;;;;;5089928;28;20184;-68
2020/12/15 03:12:37;;;;;;;2.03;1.33;;;1.10;99.90;;;;;;5089677;28;20211;-66
2020/12/15 03:15:03;;;;;;;0.20;0.20;;;1.10;99.90;;;;;;5090171;28;20156;-67
2020/12/15 03:17:29;;;;;;;0.22;0.22;;;1.10;99.90;;;;;;5090085;28;20160;-68
2020/12/15 03:19:55;;;;;;;0.40;0.40;;;1.10;99.90;;;;;;5090013;28;20168;-68
2020/12/15 03:22:21;;;;;;;0.73;0.73;;;1.10;99.90;;;;;;5089772;28;20203;-68
2020/12/15 03:24:47;;;;;;;0.38;0.38;;;1.10;99.90;;;;;;5088456;28;20206;-68
2020/12/15 03:27:13;;;;;;;0.10;0.10;;;1.10;99.90;;;;;;5089904;28;20169;-68
2020/12/15 03:29:38;;;;;;;0.10;0.10;;;1.00;99.90;;;;;;5088422;28;20164;-68
2020/12/15 03:32:04;;;;;;;0.20;0.20;;;1.10;99.90;;;;;;5089727;28;20187;-68
2020/12/15 03:34:30;;;;;;;2.25;2.13;;;1.20;99.90;;;;;;5088012;28;20171;-68
2020/12/15 03:36:56;;;;;;;0.20;0.20;;;1.20;99.90;;;;;;5099955;28;20179;-68
2020/12/15 03:39:22;;;;;;;0.68;0.68;;;1.20;99.90;;;;;;5108536;28;20179;-68
2020/12/15 03:41:48;;;;;;;0.47;0.47;;;1.20;99.90;;;;;;5108292;28;20676;-67
2020/12/15 03:44:14;;;;;;;1.00;1.00;;;1.20;99.90;;;;;;5104907;28;20227;-67
2020/12/15 03:46:40;;;;;;;0.95;0.95;;;1.10;99.90;;;;;;5088298;28;20156;-68
2020/12/15 03:49:06;;;;;;;0.73;0.73;;;1.10;99.90;;;;;;5088077;28;20160;-67
2020/12/15 03:51:32;;;;;;;0.73;0.73;;;1.00;99.90;;;;;;5089196;28;20218;-68
2020/12/15 03:53:57;;;;;;;0.25;0.25;;;1.00;99.90;;;;;;5089120;28;20160;-68
2020/12/15 03:56:23;;;;;;;0.68;0.68;;;1.00;99.90;;;;;;5089256;28;20181;-67
2020/12/15 03:58:49;;;;;;;1.05;1.05;;;1.00;99.90;;;;;;5087475;28;20168;-68
2020/12/15 04:01:15;;;;;;;0.28;0.28;;;1.00;99.90;;;;;;5089165;28;20163;-68
2020/12/15 04:03:41;;;;;;;3.20;1.10;;;0.90;99.90;;;;;;5087910;28;20647;-68
2020/12/15 04:06:07;;;;;;;0.10;0.10;;;0.90;99.90;;;;;;5089443;28;20223;-68
2020/12/15 04:08:33;;;;;;;0.20;0.20;;;0.90;99.90;;;;;;5102072;28;20244;-69
2020/12/15 04:10:59;;;;;;;0.75;0.75;;;0.90;99.90;;;;;;5109332;28;20187;-66
2020/12/15 04:13:25;;;;;;;0.55;0.55;;;0.90;99.90;;;;;;5109443;28;20160;-68
2020/12/15 04:15:51;;;;;;;0.10;0.10;;;0.90;99.90;;;;;;5107589;28;20207;-66
2020/12/15 04:18:17;;;;;;;0.20;0.20;;;0.80;99.90;;;;;;5108028;28;20242;-67
2020/12/15 04:20:43;;;;;;;0.20;0.20;;;0.90;99.90;;;;;;5109401;28;20159;-68
2020/12/15 04:23:08;;;;;;;0.38;0.38;;;0.90;99.90;;;;;;5109410;28;20168;-68
2020/12/15 04:25:54;;;;;;;0.55;0.55;;;0.90;99.90;;;;;;5112026;28;20170;-68
2020/12/15 04:28:21;;;;;;;1.00;1.00;;;0.90;99.90;;;;;;5112084;28;20203;-68
2020/12/15 04:30:47;;;;;;;1.35;1.35;;;0.90;99.90;;;;;;5113426;28;20207;-68
2020/12/15 04:33:14;;;;;;;0.43;0.43;;;1.00;99.90;;;;;;5113709;28;20160;-67
2020/12/15 04:35:40;;;;;;;0.50;0.50;;;1.00;99.90;;;;;;5111946;28;20174;-68
2020/12/15 04:38:06;;;;;;;0.82;0.82;;;1.00;99.90;;;;;;5110077;28;20190;-67
2020/12/15 04:40:33;;;;;;;0.30;0.30;;;0.90;99.90;;;;;;5112874;28;20260;-67
2020/12/15 04:43:02;;;;;;;0.25;0.25;;;1.00;99.90;;;;;;5112982;28;20183;-68
2020/12/15 04:45:28;;;;;;;0.20;0.20;;;1.00;99.90;;;;;;5108739;28;20189;-69
2020/12/15 04:48:09;;;;;;;0.20;0.20;;;1.00;99.90;;;;;;5111708;28;20207;-68
2020/12/15 04:50:37;;;;;;;0.52;0.52;;;0.90;99.90;;;;;;5105398;28;20629;-67
2020/12/15 04:53:11;;;;;;;0.32;0.32;;;0.90;99.90;;;;;;5102622;28;20176;-68
2020/12/15 04:55:38;;;;;;;0.73;0.73;;;0.90;99.90;;;;;;5092214;28;20152;-67
2020/12/15 04:58:06;;;;;;;0.40;0.40;;;1.00;99.90;;;;;;5092026;28;20499;-67
2020/12/15 05:00:34;;;;;;;1.23;1.23;;;0.90;99.90;;;;;;5091125;28;20638;-68
2020/12/15 05:03:02;;;;;;;1.08;1.08;;;1.00;99.90;;;;;;5090739;28;20160;-68
2020/12/15 05:05:29;;;;;;;0.20;0.20;;;1.00;99.90;;;;;;5091828;28;20152;-67
2020/12/15 05:08:00;;;;;;;1.08;0.60;;;1.00;99.90;;;;;;5092304;28;20217;-69
2020/12/15 05:10:26;;;;;;;0.45;0.45;;;1.00;99.90;;;;;;5091921;28;20230;-69
2020/12/15 05:12:52;;;;;;;1.52;1.52;;;1.00;99.90;;;;;;5090972;28;20160;-68
2020/12/15 05:15:19;;;;;;;0.13;0.13;;;1.00;99.90;;;;;;5091911;28;20215;-68
2020/12/15 05:17:46;;;;;;;0.17;0.17;;;1.00;99.90;;;;;;5091116;28;20195;-66
2020/12/15 05:20:26;;;;;;;0.80;0.80;;;1.00;99.90;;;;;;5089438;28;20188;-66
2020/12/15 05:22:53;;;;;;;0.40;0.40;;;1.00;99.90;;;;;;5091277;28;20155;-68
2020/12/15 05:25:23;;;;;;;0.32;0.32;;;1.00;99.90;;;;;;5091579;28;20228;-68
2020/12/15 05:27:49;;;;;;;0.10;0.10;;;1.00;99.90;;;;;;5090693;28;20192;-68
2020/12/15 05:30:15;;;;;;;0.55;0.55;;;1.00;99.90;;;;;;5091589;28;20199;-68
2020/12/15 05:32:53;;;;;;;0.50;0.47;;;0.90;99.90;;;;;;5091320;28;20164;-68
2020/12/15 05:35:33;;;;;;;0.20;0.20;;;1.00;99.90;;;;;;5091529;28;20156;-67
2020/12/15 05:38:02;;;;;;;0.50;0.50;;;1.00;99.90;;;;;;5092542;28;20222;-68
2020/12/15 05:40:28;;;;;;;0.43;0.43;;;0.90;99.90;;;;;;5091196;28;20252;-68
2020/12/15 05:42:56;;;;;;;0.57;0.57;;;0.90;99.90;;;;;;5091442;28;20593;-67
2020/12/15 05:45:23;;;;;;;0.40;0.40;;;1.00;99.90;;;;;;5090874;28;20247;-67
2020/12/15 05:47:51;;;;;;;0.25;0.25;;;1.00;99.90;;;;;;5091258;28;20249;-67
2020/12/15 05:50:25;;;;;;;0.38;0.30;;;1.00;99.90;;;;;;5091103;28;20194;-68
2020/12/15 05:53:06;;;;;;;2.25;2.08;;;1.00;99.90;;;;;;5098104;28;20691;-68
2020/12/15 05:55:32;;;;;;;0.35;0.35;;;1.00;99.90;;;;;;5110305;28;20166;-68
2020/12/15 05:58:00;;;;;;;1.17;1.10;;;1.00;99.90;;;;;;5111264;28;20160;-68
2020/12/15 06:00:28;;;;;;;0.47;0.47;;;1.00;99.90;;;;;;5110632;28;20532;-68
2020/12/15 06:03:02;;;;;;;1.13;1.13;;;1.00;99.90;;;;;;5110938;28;20156;-68
2020/12/15 06:05:30;;;;;;;0.15;0.15;;;1.10;99.90;;;;;;5110863;28;20465;-68
2020/12/15 06:07:57;;;;;;;0.70;0.70;;;1.00;99.90;;;;;;5109868;28;20163;-68
2020/12/15 06:10:25;;;;;;;0.50;0.50;;;1.00;99.90;;;;;;5111184;28;20613;-68
2020/12/15 06:12:52;;;;;;;1.50;0.77;;;1.00;99.90;;;;;;5110681;28;20179;-68
2020/12/15 06:15:19;;;;;;;0.30;0.30;;;0.90;99.90;;;;;;5110608;28;20152;-68
2020/12/15 06:17:57;;;;;;;0.20;0.20;;;1.00;99.90;;;;;;5110854;28;20159;-68
2020/12/15 06:20:23;;;;;;;1.92;1.88;;;1.00;99.90;;;;;;5110177;28;20163;-68
2020/12/15 06:22:54;;;;;;;1.58;1.48;;;1.00;99.90;;;;;;5109526;28;20163;-68
2020/12/15 06:25:36;;;;;;;0.60;0.60;;;1.00;99.90;;;;;;5109450;28;20164;-67
2020/12/15 06:28:13;;;;;;;0.68;0.68;;;0.90;99.90;;;;;;5109912;28;20160;-68
2020/12/15 06:30:41;;;;;;;0.90;0.90;;;0.90;99.90;;;;;;5109204;28;20197;-68
2020/12/15 06:33:16;;;;;;;2.80;2.70;;;0.90;99.90;;;;;;5110273;28;20187;-68
2020/12/15 06:35:47;;;;;;;0.20;0.20;;;0.80;99.90;;;;;;5110273;28;20166;-68
2020/12/15 06:38:19;;;;;;;1.60;1.50;;;0.80;99.90;;;;;;5110253;28;20166;-68
2020/12/15 06:40:47;;;;;;;0.20;0.20;;;0.90;99.90;;;;;;5109791;28;20219;-68
2020/12/15 06:43:27;;;;;;;1.00;0.98;;;0.90;99.90;;;;;;5110094;28;20209;-68
2020/12/15 06:46:11;;;;;;;0.82;0.82;;;0.90;99.90;;;;;;5110673;28;20170;-67
2020/12/15 06:48:44;;;;;;;1.10;1.10;;;0.90;99.90;;;;;;5109618;28;20160;-68
2020/12/15 06:51:10;;;;;;;0.47;0.47;;;0.90;99.90;;;;;;5110310;28;20195;-68
2020/12/15 06:53:36;;;;;;;0.60;0.60;;;1.00;99.90;;;;;;5109554;28;20194;-68
2020/12/15 06:56:04;;;;;;;0.60;0.60;;;1.00;99.90;;;;;;5108985;28;20629;-68
2020/12/15 06:58:30;;;;;;;0.90;0.90;;;0.90;99.90;;;;;;5109966;28;20155;-68
2020/12/15 07:00:58;;;;;;;1.08;1.02;;;0.90;99.90;;;;;;5109898;28;20159;-68
2020/12/15 07:03:40;;;;;;;1.00;1.00;;;0.90;99.90;;;;;;5109856;28;20191;-68
2020/12/15 07:06:16;;;;;;;0.20;0.20;;;0.90;99.90;;;;;;5109493;28;20175;-68
2020/12/15 07:08:45;;;;;;;0.47;0.47;;;0.90;99.90;;;;;;5109565;28;20304;-68
2020/12/15 07:11:11;;;;;;;0.55;0.55;;;1.00;99.90;;;;;;5109896;28;20677;-68
2020/12/15 07:13:37;;;;;;;0.43;0.43;;;1.00;99.90;;;;;;5109460;28;20195;-68
2020/12/15 07:16:04;;;;;;;0.30;0.30;;;1.10;99.90;;;;;;5109624;28;20159;-68
2020/12/15 07:18:33;;;;;;;0.30;0.30;;;1.10;99.90;;;;;;5109031;28;20163;-68
2020/12/15 07:21:02;;;;;;;0.20;0.20;;;1.10;99.90;;;;;;5109706;28;20296;-67
2020/12/15 07:23:28;;;;;;;0.10;0.10;;;1.20;99.90;;;;;;5109714;28;20187;-67
2020/12/15 07:25:54;;;;;;;3.50;2.60;;;1.20;99.90;;;;;;5109584;28;20164;-67
2020/12/15 07:28:20;;;;;;;1.13;1.13;;;1.10;99.90;;;;;;5109460;28;20177;-67
2020/12/15 07:30:47;;;;;;;2.83;2.08;;;1.10;99.90;;;;;;5109337;28;20292;-68
2020/12/15 07:33:16;;;;;;;0.32;0.32;;;1.10;99.90;;;;;;5108182;28;20278;-68
2020/12/15 07:35:43;;;;;;;0.20;0.20;;;1.20;99.90;;;;;;5109435;28;20151;-68
2020/12/15 07:38:09;;;;;;;0.22;0.22;;;1.20;99.90;;;;;;5109621;28;20193;-68
2020/12/15 07:40:35;;;;;;;1.38;1.38;;;1.20;99.90;;;;;;5109395;28;20230;-68
2020/12/15 07:43:06;;;;;;;2.65;2.47;;;1.20;99.90;;;;;;5109593;28;20234;-67
2020/12/15 07:45:34;;;;;;;0.13;0.13;;;1.20;99.90;;;;;;5109679;28;20178;-68
2020/12/15 07:48:05;;;;;;;0.45;0.45;;;1.30;99.90;;;;;;5109247;28;20159;-68
2020/12/15 07:50:31;;;;;;;0.25;0.25;;;1.30;99.90;;;;;;5109275;28;20254;-69
2020/12/15 07:53:09;;;;;;;0.30;0.30;;;1.40;99.90;;;;;;5108846;28;20153;-67
2020/12/15 07:55:35;;;;;;;0.10;0.10;;;1.30;99.90;;;;;;5109321;28;20163;-68
2020/12/15 07:58:13;;;;;;;0.73;0.73;;;1.30;99.90;;;;;;5107141;28;20175;-67
2020/12/15 08:00:39;;;;;;;0.45;0.45;;;1.30;99.90;;;;;;5088742;28;20532;-67
2020/12/15 08:03:05;;;;;;;0.95;0.88;;;1.40;99.90;;;;;;5088397;28;20555;-67
2020/12/15 08:05:31;;;;;;;0.10;0.10;;;1.30;99.90;;;;;;5087663;28;20168;-67
2020/12/15 08:08:01;;;;;;;0.75;0.75;;;1.20;99.90;;;;;;5087625;28;20175;-67
2020/12/15 08:10:32;;;;;;;0.88;0.88;;;1.20;99.90;;;;;;5087623;28;20195;-67
2020/12/15 08:13:04;;;;;;;0.20;0.20;;;1.30;99.90;;;;;;5087682;28;20171;-67
2020/12/15 08:15:37;;;;;;;0.45;0.45;;;1.40;99.90;;;;;;5089094;28;20179;-67
2020/12/15 08:18:06;;;;;;;0.40;0.40;;;1.50;99.90;;;;;;5087027;28;20202;-67
2020/12/15 08:20:34;;;;;;;0.90;0.90;;;1.50;99.90;;;;;;5086899;28;20207;-66
2020/12/15 08:23:06;;;;;;;0.55;0.55;;;1.50;99.90;;;;;;5104377;28;20202;-67
2020/12/15 08:25:34;;;;;;;0.35;0.35;;;1.30;99.90;;;;;;5108774;28;20233;-66
2020/12/15 08:28:27;;;;;;;0.30;0.30;;;1.20;99.90;;;;;;5107884;28;20190;-67
2020/12/15 08:30:56;;;;;;;0.95;0.95;;;1.10;99.90;;;;;;5106699;28;20210;-67
2020/12/15 08:33:27;;;;;;;0.82;0.82;;;1.20;99.90;;;;;;5088531;28;20164;-67
2020/12/15 08:35:56;;;;;;;3.80;3.60;;;1.30;99.90;;;;;;5088750;28;20191;-67
2020/12/15 08:38:25;;;;;;;0.20;0.20;;;1.30;99.90;;;;;;5087326;28;20171;-67
2020/12/15 08:40:55;;;;;;;0.55;0.55;;;1.30;99.90;;;;;;5088121;28;20239;-67
2020/12/15 08:43:22;;;;;;;0.40;0.40;;;1.40;99.90;;;;;;5087085;28;20198;-67
2020/12/15 08:45:48;;;;;;;3.75;3.40;;;1.40;99.90;;;;;;5088556;28;20169;-67
2020/12/15 08:48:22;;;;;;;0.57;0.57;;;1.40;99.90;;;;;;5088422;28;20254;-67
2020/12/15 08:50:48;;;;;;;1.52;1.48;;;1.40;99.90;;;;;;5086454;28;20203;-69
2020/12/15 08:53:16;;;;;;;0.35;0.35;;;1.30;99.90;;;;;;5088127;28;20155;-67
2020/12/15 08:55:43;;;;;;;0.73;0.73;;;1.30;99.90;;;;;;5088321;28;20153;-66
2020/12/15 08:58:10;;;;;;;1.05;1.05;;;1.30;99.90;;;;;;5088169;28;20172;-66
2020/12/15 09:00:42;;;;;;;0.20;0.20;;;1.30;99.90;;;;;;5088262;28;20152;-66
2020/12/15 09:03:12;;;;;;;0.68;0.68;;;1.40;99.90;;;;;;5103469;28;20179;-67
2020/12/15 09:05:49;;;;;;;0.60;0.60;;;1.50;99.90;;;;;;5108310;28;20167;-66
2020/12/15 09:08:16;;;;;;;0.15;0.15;;;1.50;99.90;;;;;;5086419;28;20172;-67
2020/12/15 09:10:42;;;;;;;0.60;0.60;;;1.40;99.90;;;;;;5093954;28;20208;-66
2020/12/15 09:13:08;;;;;;;0.95;0.95;;;1.40;99.90;;;;;;5091985;28;20172;-67
2020/12/15 09:16:04;;;;;;;0.85;0.85;;;1.30;99.90;;;;;;5091878;28;20164;-67
2020/12/15 09:18:34;;;;;;;0.43;0.43;;;1.30;99.90;;;;;;5091278;28;20636;-67
2020/12/15 09:21:29;;;;;;;1.48;1.38;;;1.40;99.90;;;;;;5091682;28;20160;-67
2020/12/15 09:23:55;;;;;;;3.42;3.22;;;1.50;99.90;;;;;;5090855;28;20191;-68
2020/12/15 09:26:22;;;;;;;0.13;0.13;;;1.50;99.90;;;;;;5095688;28;20237;-67
2020/12/15 09:28:49;;;;;;;0.50;0.50;;;1.50;99.90;;;;;;5111538;28;20178;-67
2020/12/15 09:31:16;;;;;;;0.68;0.68;;;1.50;99.90;;;;;;5111414;28;20191;-67
2020/12/15 09:33:43;;;;;;;1.75;1.65;;;1.40;99.90;;;;;;5111574;28;20158;-68
2020/12/15 09:36:12;;;;;;;2.15;2.00;;;1.50;99.90;;;;;;5105679;28;20287;-67
2020/12/15 09:38:38;;;;;;;0.70;0.70;;;1.50;99.90;;;;;;5097630;28;20183;-67
2020/12/15 09:41:04;;;;;;;0.50;0.50;;;1.60;99.90;;;;;;5105704;28;20211;-67
2020/12/15 09:43:30;;;;;;;0.17;0.17;;;1.70;99.90;;;;;;5104172;28;20182;-67
2020/12/15 09:45:55;;;;;;;1.10;1.10;;;1.60;99.90;;;;;;5111143;28;20209;-67
2020/12/15 09:48:21;;;;;;;0.50;0.50;;;1.70;99.90;;;;;;5110966;28;20163;-67
2020/12/15 09:50:47;;;;;;;0.30;0.30;;;1.70;99.90;;;;;;5111367;28;20187;-67
2020/12/15 09:53:13;;;;;;;0.82;0.82;;;1.80;99.90;;;;;;5111466;28;20155;-68
2020/12/15 09:55:40;;;;;;;0.20;0.20;;;1.80;99.90;;;;;;5111567;28;20164;-68
2020/12/15 09:58:06;;;;;;;1.92;1.75;;;1.90;99.90;;;;;;5097552;28;20223;-67
2020/12/15 10:00:32;;;;;;;0.30;0.30;;;1.90;99.90;;;;;;5089784;28;20172;-67
2020/12/15 10:02:57;;;;;;;1.40;1.40;;;1.90;99.90;;;;;;5091035;28;20182;-67
2020/12/15 10:05:24;;;;;;;1.27;1.17;;;1.80;99.90;;;;;;5102140;28;20169;-67
2020/12/15 10:07:49;;;;;;;0.75;0.75;;;1.80;99.90;;;;;;5111090;28;20199;-68
2020/12/15 10:10:16;;;;;;;0.38;0.35;;;1.80;99.90;;;;;;5110883;28;20321;-66
2020/12/15 10:12:43;;;;;;;3.25;2.00;;;1.70;99.90;;;;;;5109270;28;20191;-66
2020/12/15 10:15:10;;;;;;;0.45;0.45;;;1.70;99.90;;;;;;5110767;28;20208;-66
2020/12/15 10:17:37;;;;;;;0.10;0.10;;;1.60;99.90;;;;;;5111025;28;20191;-67
2020/12/15 10:20:05;;;;;;;0.75;0.75;;;1.60;99.90;;;;;;5111014;28;20155;-67
2020/12/15 10:22:31;;;;;;;0.13;0.13;;;1.70;99.90;;;;;;5109975;28;20190;-67
2020/12/15 10:24:57;;;;;;;1.80;1.70;;;1.80;99.90;;;;;;5111021;28;20160;-67
2020/12/15 10:27:23;;;;;;;0.98;0.98;;;1.80;99.90;;;;;;5110893;28;20206;-66
2020/12/15 10:29:48;;;;;;;0.35;0.35;;;1.70;99.90;;;;;;5110604;28;20159;-68
2020/12/15 10:32:14;;;;;;;0.25;0.25;;;1.80;99.90;;;;;;5110062;28;20159;-68
2020/12/15 10:34:40;;;;;;;0.43;0.43;;;1.60;99.90;;;;;;5109956;28;20152;-68
2020/12/15 10:37:06;;;;;;;1.20;1.20;;;1.60;99.90;;;;;;5110460;28;20716;-67
2020/12/15 10:39:32;;;;;;;1.48;1.45;;;1.60;99.90;;;;;;5101702;28;20262;-67
2020/12/15 10:41:58;;;;;;;0.65;0.65;;;1.60;99.90;;;;;;5090185;28;20222;-68
2020/12/15 10:44:24;;;;;;;0.93;0.93;;;1.60;99.90;;;;;;5102772;28;20187;-68
2020/12/15 10:46:50;;;;;;;2.03;1.48;;;1.70;99.90;;;;;;5110165;28;20195;-68
2020/12/15 10:49:16;;;;;;;1.58;1.55;;;1.80;99.90;;;;;;5108962;28;20187;-68
2020/12/15 10:51:47;;;;;;;1.65;1.55;;;1.80;99.90;;;;;;5110282;28;20191;-68
2020/12/15 10:54:12;;;;;;;0.85;0.85;;;1.80;99.90;;;;;;5109971;28;20212;-69
2020/12/15 10:56:41;;;;;;;2.67;2.50;;;1.70;99.90;;;;;;5108795;28;20187;-68
2020/12/15 10:59:07;;;;;;;1.55;1.45;;;1.80;99.90;;;;;;5109830;28;20241;-68
2020/12/15 11:01:33;;;;;;;0.38;0.38;;;1.70;99.90;;;;;;5108275;28;20175;-67
2020/12/15 11:03:59;;;;;;;0.70;0.70;;;1.70;99.90;;;;;;5109906;28;20163;-66
2020/12/15 11:06:25;;;;;;;0.75;0.75;;;1.70;99.90;;;;;;5108061;28;20225;-66
2020/12/15 11:08:52;;;;;;;0.20;0.20;;;1.60;99.90;;;;;;5110114;28;20151;-66
2020/12/15 11:11:18;;;;;;;0.20;0.20;;;1.60;99.90;;;;;;5109088;28;20242;-66
2020/12/15 11:13:46;;;;;;;0.10;0.10;;;1.50;99.90;;;;;;5109890;28;20303;-67
2020/12/15 11:16:12;;;;;;;2.92;0.73;;;1.50;99.90;;;;;;5109624;28;20209;-67
2020/12/15 11:18:38;;;;;;;0.65;0.65;;;1.40;99.90;;;;;;5109733;28;20160;-67
2020/12/15 11:21:04;;;;;;;1.42;1.00;;;1.40;99.90;;;;;;5109574;28;20195;-67
2020/12/15 11:23:30;;;;;;;0.68;0.68;;;1.50;99.90;;;;;;5109556;28;20182;-67
2020/12/15 11:25:55;;;;;;;3.10;2.55;;;1.50;99.90;;;;;;5109413;28;20163;-67
2020/12/15 11:28:21;;;;;;;0.47;0.47;;;1.40;99.90;;;;;;5109989;28;20167;-67
2020/12/15 11:30:47;;;;;;;0.15;0.15;;;1.40;99.90;;;;;;5109577;28;20191;-67
2020/12/15 11:33:13;;;;;;;1.85;1.75;;;1.20;99.90;;;;;;5109323;28;20166;-67
2020/12/15 11:35:39;;;;;;;0.68;0.60;;;1.30;99.90;;;;;;5109649;28;20159;-66
2020/12/15 11:38:05;;;;;;;0.40;0.40;;;1.30;99.90;;;;;;5108252;28;20222;-67
2020/12/15 11:40:31;;;;;;;1.35;1.25;;;1.30;99.90;;;;;;5108617;28;20577;-67
2020/12/15 11:42:58;;;;;;;0.95;0.95;;;1.30;99.90;;;;;;5109723;28;20180;-69
2020/12/15 11:45:25;;;;;;;0.52;0.52;;;1.30;99.90;;;;;;5108729;28;20590;-67
2020/12/15 11:47:56;;;;;;;0.25;0.25;;;1.40;99.90;;;;;;5108298;28;20199;-67
2020/12/15 11:50:22;;;;;;;1.25;0.75;;;1.20;99.90;;;;;;5109350;28;20187;-68
2020/12/15 11:52:48;;;;;;;1.05;0.95;;;1.20;99.90;;;;;;5109376;28;20162;-68
2020/12/15 11:55:14;;;;;;;0.30;0.30;;;1.30;99.90;;;;;;5109161;28;20215;-67
2020/12/15 11:57:40;;;;;;;1.45;1.27;;;1.20;99.90;;;;;;5107823;28;20217;-67
2020/12/15 12:00:08;;;;;;;0.20;0.20;;;1.20;99.90;;;;;;5108939;28;20623;-67
2020/12/15 12:02:35;;;;;;;1.02;1.02;;;1.30;99.90;;;;;;5109491;28;20159;-68
2020/12/15 12:05:01;;;;;;;0.55;0.55;;;1.30;99.90;;;;;;5108107;28;20158;-68
2020/12/15 12:07:27;;;;;;;0.15;0.15;;;1.30;99.90;;;;;;5096448;28;20703;-68
2020/12/15 12:09:53;;;;;;;0.20;0.20;;;1.20;99.90;;;;;;5103986;28;20179;-67
2020/12/15 12:12:19;;;;;;;1.33;1.33;;;1.30;99.90;;;;;;5108877;28;20151;-68
2020/12/15 12:14:45;;;;;;;0.10;0.10;;;1.50;99.90;;;;;;5108831;28;20167;-68
2020/12/15 12:17:11;;;;;;;0.63;0.63;;;1.50;99.90;;;;;;5108571;28;20173;-68
2020/12/15 12:19:37;;;;;;;0.20;0.20;;;1.40;99.90;;;;;;5108642;28;20167;-68
2020/12/15 12:22:03;;;;;;;9.65;2.08;;;1.50;99.90;;;;;;5108526;28;20151;-67
2020/12/15 12:24:28;;;;;;;0.57;0.57;;;1.50;99.90;;;;;;5103790;28;20180;-67
2020/12/15 12:26:57;;;;;;;0.95;0.95;;;1.60;99.90;;;;;;5098500;28;20214;-68
2020/12/15 12:29:23;;;;;;;0.93;0.90;;;1.60;99.90;;;;;;5101803;28;20175;-68
2020/12/15 12:31:50;;;;;;;0.98;0.98;;;1.60;99.90;;;;;;5108608;28;20215;-68
2020/12/15 12:34:16;;;;;;;0.35;0.35;;;1.70;99.90;;;;;;5094676;28;20172;-68
2020/12/15 12:36:41;;;;;;;0.10;0.10;;;1.70;99.90;;;;;;5087560;28;20188;-68
2020/12/15 12:39:07;;;;;;;0.35;0.35;;;1.60;99.90;;;;;;5088179;28;20239;-68
2020/12/15 12:41:34;;;;;;;0.20;0.20;;;1.80;99.90;;;;;;5092166;28;20576;-68
2020/12/15 12:44:00;;;;;;;0.30;0.30;;;1.70;99.90;;;;;;5108824;28;20190;-67
2020/12/15 12:46:25;;;;;;;0.73;0.73;;;1.70;99.90;;;;;;5110815;28;20214;-67
2020/12/15 12:48:51;;;;;;;0.55;0.55;;;1.60;99.90;;;;;;5110488;28;20226;-67
2020/12/15 12:51:17;;;;;;;0.28;0.28;;;1.50;99.90;;;;;;5112589;28;20210;-68
2020/12/15 12:53:47;;;;;;;0.73;0.73;;;1.50;99.90;;;;;;5112159;28;20195;-68
2020/12/15 12:56:13;;;;;;;1.50;1.50;;;1.50;99.90;;;;;;5112520;28;20159;-68
2020/12/15 12:58:39;;;;;;;0.75;0.75;;;1.50;99.90;;;;;;5112457;28;20156;-68
2020/12/15 13:01:06;;;;;;;1.00;1.00;;;1.50;99.90;;;;;;5112235;28;20171;-68